sensor_id;sensor_type;location;lat;lon;timestamp;P1;durP1;ratioP1;P2;durP2;ratioP2
13083;SDS011;6608;48.790;9.198;2023-04-15T00:01:39;129.70;;;56.10;;
13083;SDS011;6608;48.790;9.198;2023-04-15T00:04:05;131.67;;;56.83;;
13083;SDS011;6608;48.790;9.198;2023-04-15T00:06:33;129.30;;;55.93;;
13083;SDS011;6608;48.790;9.198;2023-04-15T00:08:59;130.70;;;56.77;;
13083;SDS011;6608;48.790;9.198;2023-04-15T00:11:26;133.57;;;56.23;;
13083;SDS011;6608;48.790;9.198;2023-04-15T00:13:52;135.33;;;56.33;;
13083;SDS011;6608;48.790;9.198;2023-04-15T00:16:19;129.97;;;56.27;;
13083;SDS011;6608;48.790;9.198;2023-04-15T00:18:45;129.40;;;55.63;;
13083;SDS011;6608;48.790;9.198;2023-04-15T00:21:12;130.87;;;56.97;;
13083;SDS011;6608;48.790;9.198;2023-04-15T00:23:40;133.37;;;55.90;;
13083;SDS011;6608;48.790;9.198;2023-04-15T00:26:06;129.57;;;55.97;;
13083;SDS011;6608;48.790;9.198;2023-04-15T00:28:32;136.50;;;55.30;;
13083;SDS011;6608;48.790;9.198;2023-04-15T00:30:59;130.57;;;56.50;;
13083;SDS011;6608;48.790;9.198;2023-04-15T00:33:25;128.27;;;55.20;;
13083;SDS011;6608;48.790;9.198;2023-04-15T00:35:52;128.30;;;55.40;;
13083;SDS011;6608;48.790;9.198;2023-04-15T00:38:18;126.03;;;55.83;;
13083;SDS011;6608;48.790;9.198;2023-04-15T00:40:46;129.40;;;56.00;;
13083;SDS011;6608;48.790;9.198;2023-04-15T00:43:13;129.57;;;55.93;;
13083;SDS011;6608;48.790;9.198;2023-04-15T00:45:40;127.03;;;55.60;;
13083;SDS011;6608;48.790;9.198;2023-04-15T00:48:07;130.10;;;56.63;;
13083;SDS011;6608;48.790;9.198;2023-04-15T00:50:34;129.43;;;56.00;;
13083;SDS011;6608;48.790;9.198;2023-04-15T00:53:00;130.87;;;56.40;;
13083;SDS011;6608;48.790;9.198;2023-04-15T00:55:27;128.27;;;56.17;;
13083;SDS011;6608;48.790;9.198;2023-04-15T00:57:54;128.77;;;56.47;;
13083;SDS011;6608;48.790;9.198;2023-04-15T01:00:21;128.57;;;55.77;;
13083;SDS011;6608;48.790;9.198;2023-04-15T01:02:47;128.47;;;55.87;;
13083;SDS011;6608;48.790;9.198;2023-04-15T01:05:14;131.73;;;56.43;;
13083;SDS011;6608;48.790;9.198;2023-04-15T01:07:42;127.33;;;56.17;;
13083;SDS011;6608;48.790;9.198;2023-04-15T01:10:09;127.67;;;55.97;;
13083;SDS011;6608;48.790;9.198;2023-04-15T01:12:35;125.90;;;55.43;;
13083;SDS011;6608;48.790;9.198;2023-04-15T01:15:03;131.20;;;55.10;;
13083;SDS011;6608;48.790;9.198;2023-04-15T01:17:30;134.47;;;55.67;;
13083;SDS011;6608;48.790;9.198;2023-04-15T01:19:56;128.50;;;54.93;;
13083;SDS011;6608;48.790;9.198;2023-04-15T01:22:23;126.53;;;55.77;;
13083;SDS011;6608;48.790;9.198;2023-04-15T01:24:53;125.43;;;55.43;;
13083;SDS011;6608;48.790;9.198;2023-04-15T01:27:22;124.50;;;54.90;;
13083;SDS011;6608;48.790;9.198;2023-04-15T01:29:48;126.83;;;55.63;;
13083;SDS011;6608;48.790;9.198;2023-04-15T01:32:15;127.00;;;56.90;;
13083;SDS011;6608;48.790;9.198;2023-04-15T01:34:41;129.03;;;57.07;;
13083;SDS011;6608;48.790;9.198;2023-04-15T01:37:08;128.43;;;56.20;;
13083;SDS011;6608;48.790;9.198;2023-04-15T01:39:34;127.03;;;56.87;;
13083;SDS011;6608;48.790;9.198;2023-04-15T01:42:01;125.93;;;55.97;;
13083;SDS011;6608;48.790;9.198;2023-04-15T01:44:28;126.13;;;56.37;;
13083;SDS011;6608;48.790;9.198;2023-04-15T01:46:55;131.13;;;57.03;;
13083;SDS011;6608;48.790;9.198;2023-04-15T01:49:21;126.90;;;55.97;;
13083;SDS011;6608;48.790;9.198;2023-04-15T01:51:48;128.13;;;55.90;;
13083;SDS011;6608;48.790;9.198;2023-04-15T01:54:14;126.80;;;55.97;;
13083;SDS011;6608;48.790;9.198;2023-04-15T01:56:40;123.90;;;55.53;;
13083;SDS011;6608;48.790;9.198;2023-04-15T01:59:07;126.43;;;56.10;;
13083;SDS011;6608;48.790;9.198;2023-04-15T02:01:35;125.60;;;56.23;;
13083;SDS011;6608;48.790;9.198;2023-04-15T02:04:02;129.30;;;57.40;;
13083;SDS011;6608;48.790;9.198;2023-04-15T02:06:28;127.17;;;56.07;;
13083;SDS011;6608;48.790;9.198;2023-04-15T02:08:54;126.07;;;56.30;;
13083;SDS011;6608;48.790;9.198;2023-04-15T02:11:21;129.80;;;56.67;;
13083;SDS011;6608;48.790;9.198;2023-04-15T02:13:48;124.40;;;55.67;;
13083;SDS011;6608;48.790;9.198;2023-04-15T02:16:15;126.27;;;55.00;;
13083;SDS011;6608;48.790;9.198;2023-04-15T02:18:44;125.43;;;55.57;;
13083;SDS011;6608;48.790;9.198;2023-04-15T02:21:10;124.93;;;56.37;;
13083;SDS011;6608;48.790;9.198;2023-04-15T02:23:37;130.77;;;55.20;;
13083;SDS011;6608;48.790;9.198;2023-04-15T02:26:03;125.23;;;55.40;;
13083;SDS011;6608;48.790;9.198;2023-04-15T02:28:30;127.53;;;55.37;;
13083;SDS011;6608;48.790;9.198;2023-04-15T02:30:56;127.60;;;56.17;;
13083;SDS011;6608;48.790;9.198;2023-04-15T02:33:23;123.73;;;55.10;;
13083;SDS011;6608;48.790;9.198;2023-04-15T02:35:51;125.00;;;56.17;;
13083;SDS011;6608;48.790;9.198;2023-04-15T02:38:18;124.50;;;55.43;;
13083;SDS011;6608;48.790;9.198;2023-04-15T02:40:44;125.10;;;55.43;;
13083;SDS011;6608;48.790;9.198;2023-04-15T02:43:13;122.30;;;55.07;;
13083;SDS011;6608;48.790;9.198;2023-04-15T02:45:41;125.10;;;55.00;;
13083;SDS011;6608;48.790;9.198;2023-04-15T02:48:07;122.93;;;54.90;;
13083;SDS011;6608;48.790;9.198;2023-04-15T02:50:34;123.73;;;54.70;;
13083;SDS011;6608;48.790;9.198;2023-04-15T02:53:04;123.63;;;54.97;;
13083;SDS011;6608;48.790;9.198;2023-04-15T02:55:30;122.73;;;54.63;;
13083;SDS011;6608;48.790;9.198;2023-04-15T02:57:57;122.73;;;55.23;;
13083;SDS011;6608;48.790;9.198;2023-04-15T03:00:24;121.67;;;55.47;;
13083;SDS011;6608;48.790;9.198;2023-04-15T03:02:56;121.87;;;55.27;;
13083;SDS011;6608;48.790;9.198;2023-04-15T03:05:22;122.57;;;55.77;;
13083;SDS011;6608;48.790;9.198;2023-04-15T03:07:49;121.83;;;55.13;;
13083;SDS011;6608;48.790;9.198;2023-04-15T03:10:17;123.23;;;56.23;;
13083;SDS011;6608;48.790;9.198;2023-04-15T03:12:44;125.77;;;56.20;;
13083;SDS011;6608;48.790;9.198;2023-04-15T03:15:10;126.17;;;56.40;;
13083;SDS011;6608;48.790;9.198;2023-04-15T03:17:36;122.73;;;55.43;;
13083;SDS011;6608;48.790;9.198;2023-04-15T03:20:03;122.93;;;56.00;;
13083;SDS011;6608;48.790;9.198;2023-04-15T03:22:30;120.87;;;54.77;;
13083;SDS011;6608;48.790;9.198;2023-04-15T03:24:56;122.47;;;55.87;;
13083;SDS011;6608;48.790;9.198;2023-04-15T03:27:24;120.27;;;55.40;;
13083;SDS011;6608;48.790;9.198;2023-04-15T03:29:51;123.43;;;55.53;;
13083;SDS011;6608;48.790;9.198;2023-04-15T03:32:17;122.53;;;56.03;;
13083;SDS011;6608;48.790;9.198;2023-04-15T03:34:43;124.00;;;55.40;;
13083;SDS011;6608;48.790;9.198;2023-04-15T03:37:10;122.53;;;55.40;;
13083;SDS011;6608;48.790;9.198;2023-04-15T03:39:36;123.07;;;56.20;;
13083;SDS011;6608;48.790;9.198;2023-04-15T03:42:03;120.83;;;55.07;;
13083;SDS011;6608;48.790;9.198;2023-04-15T03:44:30;122.70;;;55.57;;
13083;SDS011;6608;48.790;9.198;2023-04-15T03:46:57;121.70;;;55.20;;
13083;SDS011;6608;48.790;9.198;2023-04-15T03:49:23;121.63;;;55.20;;
13083;SDS011;6608;48.790;9.198;2023-04-15T03:51:50;120.73;;;55.63;;
13083;SDS011;6608;48.790;9.198;2023-04-15T03:54:16;120.93;;;55.13;;
13083;SDS011;6608;48.790;9.198;2023-04-15T03:56:42;121.33;;;55.73;;
13083;SDS011;6608;48.790;9.198;2023-04-15T03:59:09;120.57;;;55.00;;
13083;SDS011;6608;48.790;9.198;2023-04-15T04:01:36;122.27;;;55.10;;
13083;SDS011;6608;48.790;9.198;2023-04-15T04:04:03;123.57;;;55.20;;
13083;SDS011;6608;48.790;9.198;2023-04-15T04:06:29;118.50;;;55.10;;
13083;SDS011;6608;48.790;9.198;2023-04-15T04:08:56;120.00;;;55.20;;
13083;SDS011;6608;48.790;9.198;2023-04-15T04:11:22;121.47;;;55.37;;
13083;SDS011;6608;48.790;9.198;2023-04-15T04:13:49;119.90;;;55.23;;
13083;SDS011;6608;48.790;9.198;2023-04-15T04:16:15;118.93;;;54.73;;
13083;SDS011;6608;48.790;9.198;2023-04-15T04:18:43;126.90;;;56.13;;
13083;SDS011;6608;48.790;9.198;2023-04-15T04:21:09;120.13;;;55.40;;
13083;SDS011;6608;48.790;9.198;2023-04-15T04:23:36;121.00;;;54.87;;
13083;SDS011;6608;48.790;9.198;2023-04-15T04:26:02;122.40;;;55.57;;
13083;SDS011;6608;48.790;9.198;2023-04-15T04:28:29;121.10;;;55.50;;
13083;SDS011;6608;48.790;9.198;2023-04-15T04:30:55;122.17;;;55.10;;
13083;SDS011;6608;48.790;9.198;2023-04-15T04:33:21;122.10;;;55.57;;
13083;SDS011;6608;48.790;9.198;2023-04-15T04:35:49;119.63;;;55.33;;
13083;SDS011;6608;48.790;9.198;2023-04-15T04:38:16;120.10;;;55.47;;
13083;SDS011;6608;48.790;9.198;2023-04-15T04:40:42;118.13;;;54.77;;
13083;SDS011;6608;48.790;9.198;2023-04-15T04:43:08;122.27;;;55.00;;
13083;SDS011;6608;48.790;9.198;2023-04-15T04:45:35;121.53;;;56.10;;
13083;SDS011;6608;48.790;9.198;2023-04-15T04:48:01;120.57;;;55.70;;
13083;SDS011;6608;48.790;9.198;2023-04-15T04:50:30;119.87;;;55.17;;
13083;SDS011;6608;48.790;9.198;2023-04-15T04:52:58;119.07;;;55.33;;
13083;SDS011;6608;48.790;9.198;2023-04-15T04:55:25;121.03;;;55.40;;
13083;SDS011;6608;48.790;9.198;2023-04-15T04:57:51;120.90;;;55.40;;
13083;SDS011;6608;48.790;9.198;2023-04-15T05:00:18;120.80;;;56.23;;
13083;SDS011;6608;48.790;9.198;2023-04-15T05:02:44;119.00;;;55.03;;
13083;SDS011;6608;48.790;9.198;2023-04-15T05:05:11;123.23;;;56.10;;
13083;SDS011;6608;48.790;9.198;2023-04-15T05:07:38;121.37;;;55.60;;
13083;SDS011;6608;48.790;9.198;2023-04-15T05:10:06;122.70;;;56.30;;
13083;SDS011;6608;48.790;9.198;2023-04-15T05:12:33;123.57;;;56.07;;
13083;SDS011;6608;48.790;9.198;2023-04-15T05:15:01;123.53;;;55.40;;
13083;SDS011;6608;48.790;9.198;2023-04-15T05:17:27;120.17;;;55.93;;
13083;SDS011;6608;48.790;9.198;2023-04-15T05:19:55;122.80;;;56.57;;
13083;SDS011;6608;48.790;9.198;2023-04-15T05:22:22;119.87;;;55.87;;
13083;SDS011;6608;48.790;9.198;2023-04-15T05:24:48;125.07;;;55.90;;
13083;SDS011;6608;48.790;9.198;2023-04-15T05:27:16;120.17;;;55.47;;
13083;SDS011;6608;48.790;9.198;2023-04-15T05:29:43;123.60;;;55.63;;
13083;SDS011;6608;48.790;9.198;2023-04-15T05:32:09;119.23;;;55.40;;
13083;SDS011;6608;48.790;9.198;2023-04-15T05:34:36;120.43;;;55.63;;
13083;SDS011;6608;48.790;9.198;2023-04-15T05:37:02;120.87;;;55.60;;
13083;SDS011;6608;48.790;9.198;2023-04-15T05:39:29;117.60;;;54.30;;
13083;SDS011;6608;48.790;9.198;2023-04-15T05:41:56;126.87;;;56.00;;
13083;SDS011;6608;48.790;9.198;2023-04-15T05:44:25;122.60;;;55.97;;
13083;SDS011;6608;48.790;9.198;2023-04-15T05:46:51;122.77;;;57.00;;
13083;SDS011;6608;48.790;9.198;2023-04-15T05:49:18;124.47;;;56.53;;
13083;SDS011;6608;48.790;9.198;2023-04-15T05:51:44;123.77;;;56.77;;
13083;SDS011;6608;48.790;9.198;2023-04-15T05:54:12;123.53;;;55.97;;
13083;SDS011;6608;48.790;9.198;2023-04-15T05:56:38;125.90;;;56.87;;
13083;SDS011;6608;48.790;9.198;2023-04-15T05:59:05;128.57;;;56.70;;
13083;SDS011;6608;48.790;9.198;2023-04-15T06:01:33;127.57;;;57.37;;
13083;SDS011;6608;48.790;9.198;2023-04-15T06:04:00;132.53;;;57.53;;
13083;SDS011;6608;48.790;9.198;2023-04-15T06:06:27;132.70;;;57.50;;
13083;SDS011;6608;48.790;9.198;2023-04-15T06:08:53;135.57;;;58.30;;
13083;SDS011;6608;48.790;9.198;2023-04-15T06:11:19;133.27;;;57.87;;
13083;SDS011;6608;48.790;9.198;2023-04-15T06:13:46;138.00;;;59.70;;
13083;SDS011;6608;48.790;9.198;2023-04-15T06:16:12;137.43;;;58.70;;
13083;SDS011;6608;48.790;9.198;2023-04-15T06:18:40;141.17;;;59.33;;
13083;SDS011;6608;48.790;9.198;2023-04-15T06:21:07;141.57;;;59.80;;
13083;SDS011;6608;48.790;9.198;2023-04-15T06:23:33;146.57;;;61.00;;
13083;SDS011;6608;48.790;9.198;2023-04-15T06:25:59;147.60;;;61.10;;
13083;SDS011;6608;48.790;9.198;2023-04-15T06:28:26;147.43;;;60.57;;
13083;SDS011;6608;48.790;9.198;2023-04-15T06:30:52;145.30;;;60.37;;
13083;SDS011;6608;48.790;9.198;2023-04-15T06:33:19;145.50;;;60.13;;
13083;SDS011;6608;48.790;9.198;2023-04-15T06:35:46;147.17;;;60.43;;
13083;SDS011;6608;48.790;9.198;2023-04-15T06:38:13;148.27;;;60.73;;
13083;SDS011;6608;48.790;9.198;2023-04-15T06:40:40;149.00;;;61.40;;
13083;SDS011;6608;48.790;9.198;2023-04-15T06:43:06;148.13;;;60.23;;
13083;SDS011;6608;48.790;9.198;2023-04-15T06:45:33;148.77;;;61.13;;
13083;SDS011;6608;48.790;9.198;2023-04-15T06:48:00;145.77;;;59.97;;
13083;SDS011;6608;48.790;9.198;2023-04-15T06:50:26;149.90;;;60.97;;
13083;SDS011;6608;48.790;9.198;2023-04-15T06:52:54;160.77;;;61.90;;
13083;SDS011;6608;48.790;9.198;2023-04-15T06:55:21;147.83;;;61.03;;
13083;SDS011;6608;48.790;9.198;2023-04-15T06:57:47;152.77;;;61.73;;
13083;SDS011;6608;48.790;9.198;2023-04-15T07:00:14;152.90;;;63.47;;
13083;SDS011;6608;48.790;9.198;2023-04-15T07:02:40;148.80;;;61.27;;
13083;SDS011;6608;48.790;9.198;2023-04-15T07:05:07;149.37;;;60.83;;
13083;SDS011;6608;48.790;9.198;2023-04-15T07:07:34;153.00;;;63.87;;
13083;SDS011;6608;48.790;9.198;2023-04-15T07:10:02;151.63;;;61.57;;
13083;SDS011;6608;48.790;9.198;2023-04-15T07:12:29;149.13;;;61.13;;
13083;SDS011;6608;48.790;9.198;2023-04-15T07:14:55;149.30;;;61.50;;
13083;SDS011;6608;48.790;9.198;2023-04-15T07:17:22;146.43;;;60.50;;
13083;SDS011;6608;48.790;9.198;2023-04-15T07:19:48;149.63;;;60.33;;
13083;SDS011;6608;48.790;9.198;2023-04-15T07:22:14;149.80;;;60.57;;
13083;SDS011;6608;48.790;9.198;2023-04-15T07:24:41;145.50;;;59.63;;
13083;SDS011;6608;48.790;9.198;2023-04-15T07:27:09;145.63;;;59.37;;
13083;SDS011;6608;48.790;9.198;2023-04-15T07:29:36;146.73;;;60.57;;
13083;SDS011;6608;48.790;9.198;2023-04-15T07:32:02;142.63;;;59.60;;
13083;SDS011;6608;48.790;9.198;2023-04-15T07:34:29;147.33;;;60.73;;
13083;SDS011;6608;48.790;9.198;2023-04-15T07:36:55;145.63;;;60.37;;
13083;SDS011;6608;48.790;9.198;2023-04-15T07:39:22;143.20;;;59.43;;
13083;SDS011;6608;48.790;9.198;2023-04-15T07:41:48;146.83;;;60.43;;
13083;SDS011;6608;48.790;9.198;2023-04-15T07:44:16;144.93;;;59.80;;
13083;SDS011;6608;48.790;9.198;2023-04-15T07:46:42;146.50;;;61.17;;
13083;SDS011;6608;48.790;9.198;2023-04-15T07:49:09;145.77;;;60.63;;
13083;SDS011;6608;48.790;9.198;2023-04-15T07:51:35;147.97;;;60.70;;
13083;SDS011;6608;48.790;9.198;2023-04-15T07:54:02;149.37;;;61.07;;
13083;SDS011;6608;48.790;9.198;2023-04-15T07:56:28;149.33;;;61.57;;
13083;SDS011;6608;48.790;9.198;2023-04-15T07:58:55;153.07;;;61.77;;
13083;SDS011;6608;48.790;9.198;2023-04-15T08:01:23;150.33;;;61.73;;
13083;SDS011;6608;48.790;9.198;2023-04-15T08:03:49;150.30;;;61.40;;
13083;SDS011;6608;48.790;9.198;2023-04-15T08:06:16;148.23;;;60.97;;
13083;SDS011;6608;48.790;9.198;2023-04-15T08:08:42;151.00;;;62.43;;
13083;SDS011;6608;48.790;9.198;2023-04-15T08:11:09;152.07;;;62.37;;
13083;SDS011;6608;48.790;9.198;2023-04-15T08:13:35;152.57;;;61.80;;
13083;SDS011;6608;48.790;9.198;2023-04-15T08:18:54;151.20;;;61.97;;
13083;SDS011;6608;48.790;9.198;2023-04-15T08:21:21;149.97;;;59.63;;
13083;SDS011;6608;48.790;9.198;2023-04-15T08:23:48;152.00;;;59.10;;
13083;SDS011;6608;48.790;9.198;2023-04-15T08:26:15;151.33;;;59.67;;
13083;SDS011;6608;48.790;9.198;2023-04-15T08:28:42;149.73;;;60.20;;
13083;SDS011;6608;48.790;9.198;2023-04-15T08:31:09;150.57;;;60.03;;
13083;SDS011;6608;48.790;9.198;2023-04-15T08:33:35;155.40;;;60.33;;
13083;SDS011;6608;48.790;9.198;2023-04-15T08:36:03;151.47;;;59.63;;
13083;SDS011;6608;48.790;9.198;2023-04-15T08:38:30;160.50;;;63.87;;
13083;SDS011;6608;48.790;9.198;2023-04-15T08:40:56;155.50;;;62.80;;
13083;SDS011;6608;48.790;9.198;2023-04-15T08:43:27;157.20;;;62.57;;
13083;SDS011;6608;48.790;9.198;2023-04-15T08:45:54;160.90;;;64.43;;
13083;SDS011;6608;48.790;9.198;2023-04-15T08:48:23;160.93;;;63.53;;
13083;SDS011;6608;48.790;9.198;2023-04-15T08:50:50;161.70;;;64.00;;
13083;SDS011;6608;48.790;9.198;2023-04-15T08:53:18;165.10;;;64.57;;
13083;SDS011;6608;48.790;9.198;2023-04-15T08:55:46;166.70;;;65.03;;
13083;SDS011;6608;48.790;9.198;2023-04-15T08:58:16;168.17;;;65.83;;
13083;SDS011;6608;48.790;9.198;2023-04-15T09:00:42;172.50;;;67.30;;
13083;SDS011;6608;48.790;9.198;2023-04-15T09:03:09;170.53;;;66.23;;
13083;SDS011;6608;48.790;9.198;2023-04-15T09:05:35;165.83;;;65.50;;
13083;SDS011;6608;48.790;9.198;2023-04-15T09:08:02;167.53;;;65.30;;
13083;SDS011;6608;48.790;9.198;2023-04-15T09:10:30;174.10;;;67.27;;
13083;SDS011;6608;48.790;9.198;2023-04-15T09:12:58;167.03;;;65.17;;
13083;SDS011;6608;48.790;9.198;2023-04-15T09:15:24;170.30;;;66.27;;
13083;SDS011;6608;48.790;9.198;2023-04-15T09:17:51;171.70;;;66.00;;
13083;SDS011;6608;48.790;9.198;2023-04-15T09:20:18;175.77;;;66.37;;
13083;SDS011;6608;48.790;9.198;2023-04-15T09:22:45;166.83;;;65.33;;
13083;SDS011;6608;48.790;9.198;2023-04-15T09:25:24;170.47;;;65.43;;
13083;SDS011;6608;48.790;9.198;2023-04-15T09:27:54;171.67;;;66.33;;
13083;SDS011;6608;48.790;9.198;2023-04-15T09:30:20;168.00;;;65.23;;
13083;SDS011;6608;48.790;9.198;2023-04-15T09:32:48;166.60;;;65.43;;
13083;SDS011;6608;48.790;9.198;2023-04-15T09:35:15;169.47;;;66.13;;
13083;SDS011;6608;48.790;9.198;2023-04-15T09:37:41;165.40;;;62.13;;
13083;SDS011;6608;48.790;9.198;2023-04-15T09:40:08;168.03;;;65.50;;
13083;SDS011;6608;48.790;9.198;2023-04-15T09:42:34;170.43;;;65.97;;
13083;SDS011;6608;48.790;9.198;2023-04-15T09:45:09;173.37;;;67.37;;
13083;SDS011;6608;48.790;9.198;2023-04-15T09:47:36;174.77;;;66.10;;
13083;SDS011;6608;48.790;9.198;2023-04-15T09:50:02;168.87;;;65.40;;
13083;SDS011;6608;48.790;9.198;2023-04-15T09:52:29;168.20;;;65.27;;
13083;SDS011;6608;48.790;9.198;2023-04-15T09:54:56;169.37;;;65.83;;
13083;SDS011;6608;48.790;9.198;2023-04-15T09:57:22;167.07;;;64.23;;
13083;SDS011;6608;48.790;9.198;2023-04-15T09:59:49;165.63;;;64.03;;
13083;SDS011;6608;48.790;9.198;2023-04-15T10:02:17;167.83;;;64.47;;
13083;SDS011;6608;48.790;9.198;2023-04-15T10:04:43;169.47;;;66.13;;
13083;SDS011;6608;48.790;9.198;2023-04-15T10:07:11;163.60;;;63.90;;
13083;SDS011;6608;48.790;9.198;2023-04-15T10:09:38;165.20;;;64.33;;
13083;SDS011;6608;48.790;9.198;2023-04-15T10:12:05;166.63;;;64.23;;
13083;SDS011;6608;48.790;9.198;2023-04-15T10:14:32;167.77;;;64.00;;
13083;SDS011;6608;48.790;9.198;2023-04-15T10:16:59;164.03;;;64.27;;
13083;SDS011;6608;48.790;9.198;2023-04-15T10:19:28;163.37;;;64.63;;
13083;SDS011;6608;48.790;9.198;2023-04-15T10:21:56;163.50;;;63.90;;
13083;SDS011;6608;48.790;9.198;2023-04-15T10:24:23;165.67;;;64.23;;
13083;SDS011;6608;48.790;9.198;2023-04-15T10:26:50;163.77;;;63.87;;
13083;SDS011;6608;48.790;9.198;2023-04-15T10:29:17;167.23;;;65.13;;
13083;SDS011;6608;48.790;9.198;2023-04-15T10:31:43;167.80;;;65.17;;
13083;SDS011;6608;48.790;9.198;2023-04-15T10:34:10;170.07;;;66.20;;
13083;SDS011;6608;48.790;9.198;2023-04-15T10:36:38;168.67;;;65.13;;
13083;SDS011;6608;48.790;9.198;2023-04-15T10:39:10;171.57;;;66.63;;
13083;SDS011;6608;48.790;9.198;2023-04-15T10:42:04;171.17;;;66.23;;
13083;SDS011;6608;48.790;9.198;2023-04-15T10:44:31;171.10;;;66.07;;
13083;SDS011;6608;48.790;9.198;2023-04-15T10:46:57;172.50;;;66.83;;
13083;SDS011;6608;48.790;9.198;2023-04-15T10:49:24;175.33;;;66.63;;
13083;SDS011;6608;48.790;9.198;2023-04-15T10:51:57;173.47;;;66.20;;
13083;SDS011;6608;48.790;9.198;2023-04-15T10:54:29;170.77;;;66.03;;
13083;SDS011;6608;48.790;9.198;2023-04-15T10:57:06;171.93;;;66.17;;
13083;SDS011;6608;48.790;9.198;2023-04-15T10:59:34;171.27;;;66.07;;
13083;SDS011;6608;48.790;9.198;2023-04-15T11:02:02;169.23;;;65.33;;
13083;SDS011;6608;48.790;9.198;2023-04-15T11:07:14;168.80;;;65.43;;
13083;SDS011;6608;48.790;9.198;2023-04-15T11:09:40;170.13;;;65.33;;
13083;SDS011;6608;48.790;9.198;2023-04-15T11:12:06;172.03;;;66.37;;
13083;SDS011;6608;48.790;9.198;2023-04-15T11:14:33;172.27;;;67.13;;
13083;SDS011;6608;48.790;9.198;2023-04-15T11:17:00;175.03;;;69.53;;
13083;SDS011;6608;48.790;9.198;2023-04-15T11:19:34;172.27;;;66.50;;
13083;SDS011;6608;48.790;9.198;2023-04-15T11:22:05;177.03;;;68.07;;
13083;SDS011;6608;48.790;9.198;2023-04-15T11:24:33;171.73;;;68.30;;
13083;SDS011;6608;48.790;9.198;2023-04-15T11:27:00;175.47;;;66.97;;
13083;SDS011;6608;48.790;9.198;2023-04-15T11:29:27;171.57;;;66.40;;
13083;SDS011;6608;48.790;9.198;2023-04-15T11:32:00;171.37;;;67.03;;
13083;SDS011;6608;48.790;9.198;2023-04-15T11:34:27;171.60;;;66.63;;
13083;SDS011;6608;48.790;9.198;2023-04-15T11:36:55;171.53;;;66.67;;
13083;SDS011;6608;48.790;9.198;2023-04-15T11:39:22;173.27;;;65.90;;
13083;SDS011;6608;48.790;9.198;2023-04-15T11:41:49;177.63;;;67.10;;
13083;SDS011;6608;48.790;9.198;2023-04-15T11:44:16;173.50;;;67.03;;
13083;SDS011;6608;48.790;9.198;2023-04-15T11:46:42;169.77;;;66.20;;
13083;SDS011;6608;48.790;9.198;2023-04-15T11:49:09;170.07;;;65.17;;
13083;SDS011;6608;48.790;9.198;2023-04-15T11:51:35;168.63;;;65.27;;
13083;SDS011;6608;48.790;9.198;2023-04-15T11:54:02;165.80;;;64.30;;
13083;SDS011;6608;48.790;9.198;2023-04-15T11:56:28;167.10;;;66.40;;
13083;SDS011;6608;48.790;9.198;2023-04-15T11:58:57;165.43;;;65.10;;
13083;SDS011;6608;48.790;9.198;2023-04-15T12:01:29;164.30;;;65.17;;
13083;SDS011;6608;48.790;9.198;2023-04-15T12:03:56;168.03;;;64.63;;
13083;SDS011;6608;48.790;9.198;2023-04-15T12:06:23;168.17;;;65.93;;
13083;SDS011;6608;48.790;9.198;2023-04-15T12:08:54;170.47;;;66.43;;
13083;SDS011;6608;48.790;9.198;2023-04-15T12:11:26;171.57;;;67.23;;
13083;SDS011;6608;48.790;9.198;2023-04-15T12:13:53;168.60;;;66.57;;
13083;SDS011;6608;48.790;9.198;2023-04-15T12:16:22;170.53;;;66.57;;
13083;SDS011;6608;48.790;9.198;2023-04-15T12:18:49;169.70;;;65.47;;
13083;SDS011;6608;48.790;9.198;2023-04-15T12:21:17;166.33;;;65.07;;
13083;SDS011;6608;48.790;9.198;2023-04-15T12:23:47;166.47;;;64.77;;
13083;SDS011;6608;48.790;9.198;2023-04-15T12:26:14;166.37;;;64.60;;
13083;SDS011;6608;48.790;9.198;2023-04-15T12:28:40;165.13;;;64.43;;
13083;SDS011;6608;48.790;9.198;2023-04-15T12:31:06;168.40;;;66.97;;
13083;SDS011;6608;48.790;9.198;2023-04-15T12:33:35;164.20;;;63.83;;
13083;SDS011;6608;48.790;9.198;2023-04-15T12:36:01;163.13;;;61.50;;
13083;SDS011;6608;48.790;9.198;2023-04-15T12:38:28;163.53;;;62.43;;
13083;SDS011;6608;48.790;9.198;2023-04-15T12:40:55;157.03;;;63.03;;
13083;SDS011;6608;48.790;9.198;2023-04-15T12:43:21;154.93;;;61.20;;
13083;SDS011;6608;48.790;9.198;2023-04-15T12:45:48;155.33;;;61.87;;
13083;SDS011;6608;48.790;9.198;2023-04-15T12:48:14;151.67;;;61.37;;
13083;SDS011;6608;48.790;9.198;2023-04-15T12:50:42;150.03;;;60.97;;
13083;SDS011;6608;48.790;9.198;2023-04-15T12:53:08;149.90;;;61.70;;
13083;SDS011;6608;48.790;9.198;2023-04-15T12:55:35;148.80;;;60.67;;
13083;SDS011;6608;48.790;9.198;2023-04-15T12:58:01;150.17;;;61.30;;
13083;SDS011;6608;48.790;9.198;2023-04-15T13:00:27;149.47;;;60.43;;
13083;SDS011;6608;48.790;9.198;2023-04-15T13:02:54;152.23;;;61.07;;
13083;SDS011;6608;48.790;9.198;2023-04-15T13:05:20;149.63;;;60.67;;
13083;SDS011;6608;48.790;9.198;2023-04-15T13:07:48;148.77;;;60.70;;
13083;SDS011;6608;48.790;9.198;2023-04-15T13:10:15;149.43;;;61.03;;
13083;SDS011;6608;48.790;9.198;2023-04-15T13:12:41;149.77;;;60.77;;
13083;SDS011;6608;48.790;9.198;2023-04-15T13:15:08;150.07;;;61.03;;
13083;SDS011;6608;48.790;9.198;2023-04-15T13:17:35;168.20;;;62.90;;
13083;SDS011;6608;48.790;9.198;2023-04-15T13:20:01;152.00;;;61.60;;
13083;SDS011;6608;48.790;9.198;2023-04-15T13:22:28;153.50;;;62.03;;
13083;SDS011;6608;48.790;9.198;2023-04-15T13:24:56;152.97;;;61.57;;
13083;SDS011;6608;48.790;9.198;2023-04-15T13:27:23;153.67;;;60.10;;
13083;SDS011;6608;48.790;9.198;2023-04-15T13:29:49;154.00;;;62.60;;
13083;SDS011;6608;48.790;9.198;2023-04-15T13:32:15;154.17;;;60.13;;
13083;SDS011;6608;48.790;9.198;2023-04-15T13:34:42;152.63;;;61.23;;
13083;SDS011;6608;48.790;9.198;2023-04-15T13:37:08;151.57;;;59.40;;
13083;SDS011;6608;48.790;9.198;2023-04-15T13:39:35;154.00;;;62.33;;
13083;SDS011;6608;48.790;9.198;2023-04-15T13:42:03;156.13;;;61.27;;
13083;SDS011;6608;48.790;9.198;2023-04-15T13:44:29;156.23;;;63.30;;
13083;SDS011;6608;48.790;9.198;2023-04-15T13:46:56;155.93;;;61.30;;
13083;SDS011;6608;48.790;9.198;2023-04-15T13:49:23;153.47;;;60.47;;
13083;SDS011;6608;48.790;9.198;2023-04-15T13:51:49;156.20;;;61.03;;
13083;SDS011;6608;48.790;9.198;2023-04-15T13:54:16;156.33;;;62.30;;
13083;SDS011;6608;48.790;9.198;2023-04-15T13:56:42;156.83;;;61.23;;
13083;SDS011;6608;48.790;9.198;2023-04-15T13:59:10;157.73;;;62.47;;
13083;SDS011;6608;48.790;9.198;2023-04-15T14:01:36;158.00;;;61.13;;
13083;SDS011;6608;48.790;9.198;2023-04-15T14:04:03;154.37;;;61.00;;
13083;SDS011;6608;48.790;9.198;2023-04-15T14:06:29;155.23;;;61.40;;
13083;SDS011;6608;48.790;9.198;2023-04-15T14:08:56;155.10;;;61.10;;
13083;SDS011;6608;48.790;9.198;2023-04-15T14:11:22;153.73;;;60.60;;
13083;SDS011;6608;48.790;9.198;2023-04-15T14:13:49;151.77;;;60.23;;
13083;SDS011;6608;48.790;9.198;2023-04-15T14:16:16;152.67;;;60.30;;
13083;SDS011;6608;48.790;9.198;2023-04-15T14:18:43;155.27;;;61.47;;
13083;SDS011;6608;48.790;9.198;2023-04-15T14:21:09;154.83;;;60.33;;
13083;SDS011;6608;48.790;9.198;2023-04-15T14:23:36;153.17;;;60.17;;
13083;SDS011;6608;48.790;9.198;2023-04-15T14:26:02;151.77;;;60.27;;